Terminal Aerodrome Forecast
Issued by NWS

Home | Current Version | Previous Version | Graphics & Text | Print | Product List | Glossary On
Versions: 1 2 3 4 5 6 7 8 9 10 11 12 13 14 15 16 17 18 19 20 21 22 23 24 25 26 27 28 29 30 31 32 33 34 35 36
370
FTUS43 KGRB 250929 AAB
TAFRHI
TAF AMD
KRHI 250929Z 2509/2606 VRB03KT 1/4SM FG VV001
      TEMPO 2511/2513 1 1/2SM BR OVC003
     FM251300 09005KT 3SM BR BKN008
     FM251500 11008KT P6SM SCT018 BKN200
     FM252100 12009KT P6SM SCT025 OVC045 PROB30 2522/2601 5SM -TSRA
      OVC025CB
     FM260100 13005KT 3SM BR SCT005 OVC010
      TEMPO 2602/2606 2SM -SHRA BR BKN005=

USA.gov is the U.S. government's official web portal to all federal, state and local government web resources and services.